• Join FlightAware (Why Join?)
  • Login
  • US Flag 
03:31PM EDT


 

Airport Tracker/Info


-or-


 

Live Flight TrackerFlight Track Log ✈ N770PJ ✈ 26-May-2013 ✈ KSAT - MMAN / NTR

Flight Track Log - Related Links

Times and Time Zones

All times are in EDT time to prevent confusion due to time zone crossing. See the N770PJ flight status page for this flight to view local times or setup timezone preferences in your user account.

Time Position Orientation Groundspeed Altitude Reporting Facility
EDT Latitude Longitude Course Direction KTS MPH feet Rate Location/Type
09:22PM 29.5503 -98.4439 44° Northeast 171 197 1,700  Level Houston Center
09:22PM 29.5631 -98.4297 44° Northeast 186 214 2,300 2,340 Climbing Houston Center
09:23PM 29.5850 -98.3892 58° Northeast 225 259 4,100 2,520 Climbing Houston Center
09:23PM 29.5811 -98.3681 102° East 224 258 4,900 2,580 Climbing Houston Center
09:24PM 29.5508 -98.3356 137° Southeast 240 276 6,700 2,400 Climbing Houston Center
09:24PM 29.5294 -98.3361 181° South 241 277 7,400 2,400 Climbing Houston Center
09:25PM 29.4864 -98.3675 212° Southwest 266 306 9,200 2,520 Climbing Houston Center
09:25PM 29.4633 -98.3858 215° Southwest 263 303 10,000 1,980 Climbing Houston Center
09:26PM 29.3972 -98.4383 215° Southwest 285 328 12,000 2,400 Climbing Houston Center
09:28PM 29.3269 -98.4944 215° Southwest 304 350 14,900 2,580 Climbing Houston Center
09:29PM 29.2606 -98.5444 213° Southwest 287 330 17,300 1,680 Climbing Houston Center
09:30PM 29.1892 -98.5981 213° Southwest 307 353 18,400 1,140 Climbing Houston Center
09:31PM 29.1031 -98.6453 206° Southwest 340 391 19,700 1,680 Climbing Houston Center
09:32PM 29.0131 -98.6981 207° Southwest 337 388 21,900 1,380 Climbing Houston Center
09:33PM 28.9272 -98.7494 208° Southwest 348 400 22,600 900 Climbing Houston Center
09:34PM 28.8336 -98.8025 206° Southwest 372 428 23,800 1,500 Climbing Houston Center
09:35PM 28.7442 -98.8544 207° Southwest 361 415 25,700 1,260 Climbing Houston Center
09:36PM 28.6628 -98.8961 204° Southwest 359 413 26,400 720 Climbing Houston Center
09:37PM 28.5658 -98.9483 205° Southwest 380 437 27,200 660 Climbing Houston Center
09:38PM 28.4683 -99.0019 206° Southwest 388 447 27,800 300 Climbing Houston Center
09:39PM 28.3669 -99.0597 207° Southwest 403 464 27,900 60 Climbing Houston Center
09:40PM 28.2425 -99.1400 210° Southwest 426 490 28,000  Climbing Houston Center
09:41PM 28.1339 -99.2103 210° Southwest 445 512 28,000  Level Houston Center
09:42PM 28.0222 -99.2736 207° Southwest 450 518 28,100  Climbing Houston Center
09:43PM 27.9058 -99.3300 203° Southwest 456 525 28,100  Level Houston Center
09:44PM 27.7942 -99.3892 205° Southwest 448 516 28,100 -60 Level Houston Center
09:45PM 27.6842 -99.4467 205° Southwest 442 509 28,000 -60 Descending Houston Center
09:46PM 27.5728 -99.5017 204° Southwest 441 507 28,000  Level Houston Center
09:48PM 27.4289 -99.5605 204° Southwest  Level FlightAware Approximate
09:55PM 26.8353 -99.7452 197° South  Level FlightAware Approximate
09:56PM 26.7511 -99.7742 197° South  Level FlightAware Approximate
09:57PM 26.6669 -99.8030 197° South  Level FlightAware Approximate
09:58PM 26.5828 -99.8319 197° South  Level FlightAware Approximate
09:59PM 26.4986 -99.8607 197° South  Level FlightAware Approximate
10:00PM 26.4144 -99.8894 197° South  Level FlightAware Approximate
10:01PM 26.3297 -99.9161 195° South  Level FlightAware Approximate
10:02PM 26.2447 -99.9416 195° South  Level FlightAware Approximate
10:03PM 26.1601 -99.9689 197° South  Level FlightAware Approximate
10:04PM 26.0758 -99.9970 197° South  Level FlightAware Approximate
10:05PM 25.9912 -100.0243 195° South  Level FlightAware Approximate
10:06PM 25.9062 -100.0498 195° South  Level FlightAware Approximate
10:07PM 25.8220 -100.0779 200° South  Level FlightAware Approximate
10:08PM 25.7874 -100.1227 307° West  Level FlightAware Approximate
10:09PM 25.8355 -100.2044 299° West  Level FlightAware Approximate
10:10PM 25.8656 -100.2372 318° Northwest  Level Estimated
10:11PM 25.8656 -100.2372 318° Northwest  Level Estimated
10:12PM 25.8656 -100.2372 318° Northwest  Level Estimated
10:13PM 25.8656 -100.2372 318° Northwest  Level Estimated
10:14PM 25.8656 -100.2372 318° Northwest  Level Estimated
10:15PM 25.8656 -100.2372 318° Northwest  Level Estimated
10:16PM 25.8656 -100.2372 318° Northwest  Level Estimated
10:17PM 25.8656 -100.2372 318° Northwest  Level Estimated
10:18PM 25.8656 -100.2372 318° Northwest  Level Estimated
10:19PM 25.8656 -100.2372 318° Northwest  Level Estimated
10:20PM 25.8656 -100.2372 318° Northwest  Level Estimated
10:21PM 25.8656 -100.2372 318° Northwest  Level Estimated
10:22PM 25.8656 -100.2372 318° Northwest  Level Estimated
10:23PM 25.8656 -100.2372 318° Northwest  Level Estimated
10:24PM 25.8656 -100.2372 318° Northwest  Level Estimated
10:25PM 25.8656 -100.2372 318° Northwest  Level Estimated
10:26PM 25.8656 -100.2372 318° Northwest  Level Estimated